sensor_id;sensor_type;location;lat;lon;timestamp;P1;durP1;ratioP1;P2;durP2;ratioP2
11677;SDS011;5895;41.950;24.372;2023-02-04T00:00:02;14.77;;;11.53;;
11677;SDS011;5895;41.950;24.372;2023-02-04T00:02:31;13.10;;;9.68;;
11677;SDS011;5895;41.950;24.372;2023-02-04T00:05:00;9.40;;;8.33;;
11677;SDS011;5895;41.950;24.372;2023-02-04T00:07:27;11.87;;;9.80;;
11677;SDS011;5895;41.950;24.372;2023-02-04T00:09:54;14.20;;;11.50;;
11677;SDS011;5895;41.950;24.372;2023-02-04T00:12:21;11.30;;;8.87;;
11677;SDS011;5895;41.950;24.372;2023-02-04T00:14:48;7.47;;;6.57;;
11677;SDS011;5895;41.950;24.372;2023-02-04T00:17:15;1.77;;;1.67;;
11677;SDS011;5895;41.950;24.372;2023-02-04T00:19:42;3.13;;;1.70;;
11677;SDS011;5895;41.950;24.372;2023-02-04T00:22:11;2.22;;;1.70;;
11677;SDS011;5895;41.950;24.372;2023-02-04T00:24:38;2.00;;;1.70;;
11677;SDS011;5895;41.950;24.372;2023-02-04T00:27:07;1.87;;;1.57;;
11677;SDS011;5895;41.950;24.372;2023-02-04T00:29:34;1.40;;;1.30;;
11677;SDS011;5895;41.950;24.372;2023-02-04T00:32:01;1.73;;;1.63;;
11677;SDS011;5895;41.950;24.372;2023-02-04T00:34:28;2.57;;;1.70;;
11677;SDS011;5895;41.950;24.372;2023-02-04T00:36:55;1.50;;;1.40;;
11677;SDS011;5895;41.950;24.372;2023-02-04T00:39:23;1.50;;;1.40;;
11677;SDS011;5895;41.950;24.372;2023-02-04T00:41:50;1.63;;;1.53;;
11677;SDS011;5895;41.950;24.372;2023-02-04T00:44:17;2.33;;;1.40;;
11677;SDS011;5895;41.950;24.372;2023-02-04T00:46:44;1.73;;;1.50;;
11677;SDS011;5895;41.950;24.372;2023-02-04T00:49:12;1.50;;;1.40;;
11677;SDS011;5895;41.950;24.372;2023-02-04T00:51:40;1.67;;;1.57;;
11677;SDS011;5895;41.950;24.372;2023-02-04T00:54:10;1.70;;;1.60;;
11677;SDS011;5895;41.950;24.372;2023-02-04T00:56:40;1.40;;;1.30;;
11677;SDS011;5895;41.950;24.372;2023-02-04T00:59:07;1.63;;;1.53;;
11677;SDS011;5895;41.950;24.372;2023-02-04T01:01:34;1.45;;;1.20;;
11677;SDS011;5895;41.950;24.372;2023-02-04T01:04:01;2.50;;;1.40;;
11677;SDS011;5895;41.950;24.372;2023-02-04T01:06:29;1.23;;;1.13;;
11677;SDS011;5895;41.950;24.372;2023-02-04T01:08:56;2.57;;;1.50;;
11677;SDS011;5895;41.950;24.372;2023-02-04T01:11:23;1.40;;;1.30;;
11677;SDS011;5895;41.950;24.372;2023-02-04T01:13:51;3.10;;;2.07;;
11677;SDS011;5895;41.950;24.372;2023-02-04T01:16:18;5.40;;;4.90;;
11677;SDS011;5895;41.950;24.372;2023-02-04T01:18:45;10.00;;;7.67;;
11677;SDS011;5895;41.950;24.372;2023-02-04T01:21:12;9.90;;;7.23;;
11677;SDS011;5895;41.950;24.372;2023-02-04T01:23:39;7.27;;;5.37;;
11677;SDS011;5895;41.950;24.372;2023-02-04T01:26:06;7.50;;;5.70;;
11677;SDS011;5895;41.950;24.372;2023-02-04T01:28:33;6.20;;;5.30;;
11677;SDS011;5895;41.950;24.372;2023-02-04T01:31:02;8.37;;;6.23;;
11677;SDS011;5895;41.950;24.372;2023-02-04T01:33:29;7.93;;;6.40;;
11677;SDS011;5895;41.950;24.372;2023-02-04T01:35:56;8.97;;;6.63;;
11677;SDS011;5895;41.950;24.372;2023-02-04T01:38:23;8.77;;;5.30;;
11677;SDS011;5895;41.950;24.372;2023-02-04T01:40:50;5.87;;;4.17;;
11677;SDS011;5895;41.950;24.372;2023-02-04T01:43:18;4.80;;;4.00;;
11677;SDS011;5895;41.950;24.372;2023-02-04T01:45:46;4.33;;;3.30;;
11677;SDS011;5895;41.950;24.372;2023-02-04T01:48:15;6.93;;;5.83;;
11677;SDS011;5895;41.950;24.372;2023-02-04T01:50:46;8.27;;;5.93;;
11677;SDS011;5895;41.950;24.372;2023-02-04T01:53:13;7.40;;;6.10;;
11677;SDS011;5895;41.950;24.372;2023-02-04T01:55:43;9.60;;;7.47;;
11677;SDS011;5895;41.950;24.372;2023-02-04T01:58:10;8.27;;;6.20;;
11677;SDS011;5895;41.950;24.372;2023-02-04T02:00:38;5.27;;;4.77;;
11677;SDS011;5895;41.950;24.372;2023-02-04T02:03:06;6.70;;;4.70;;
11677;SDS011;5895;41.950;24.372;2023-02-04T02:05:37;4.10;;;3.70;;
11677;SDS011;5895;41.950;24.372;2023-02-04T02:08:07;2.77;;;2.40;;
11677;SDS011;5895;41.950;24.372;2023-02-04T02:10:34;2.40;;;2.20;;
11677;SDS011;5895;41.950;24.372;2023-02-04T02:13:03;3.22;;;2.15;;
11677;SDS011;5895;41.950;24.372;2023-02-04T02:15:32;2.80;;;2.60;;
11677;SDS011;5895;41.950;24.372;2023-02-04T02:17:59;3.42;;;2.38;;
11677;SDS011;5895;41.950;24.372;2023-02-04T02:20:27;2.35;;;1.88;;
11677;SDS011;5895;41.950;24.372;2023-02-04T02:22:58;2.47;;;2.17;;
11677;SDS011;5895;41.950;24.372;2023-02-04T02:25:31;4.32;;;3.58;;
11677;SDS011;5895;41.950;24.372;2023-02-04T02:27:59;4.65;;;3.65;;
11677;SDS011;5895;41.950;24.372;2023-02-04T02:30:28;3.88;;;3.47;;
11677;SDS011;5895;41.950;24.372;2023-02-04T02:32:55;3.43;;;3.10;;
11677;SDS011;5895;41.950;24.372;2023-02-04T02:35:23;3.45;;;3.15;;
11677;SDS011;5895;41.950;24.372;2023-02-04T02:37:50;3.30;;;3.00;;
11677;SDS011;5895;41.950;24.372;2023-02-04T02:40:17;2.83;;;2.60;;
11677;SDS011;5895;41.950;24.372;2023-02-04T02:42:47;3.30;;;2.72;;
11677;SDS011;5895;41.950;24.372;2023-02-04T02:45:18;3.70;;;3.40;;
11677;SDS011;5895;41.950;24.372;2023-02-04T02:47:49;3.20;;;2.90;;
11677;SDS011;5895;41.950;24.372;2023-02-04T02:50:18;4.55;;;3.45;;
11677;SDS011;5895;41.950;24.372;2023-02-04T02:52:47;11.50;;;6.82;;
11677;SDS011;5895;41.950;24.372;2023-02-04T02:55:15;12.35;;;8.40;;
11677;SDS011;5895;41.950;24.372;2023-02-04T02:57:44;9.60;;;6.63;;
11677;SDS011;5895;41.950;24.372;2023-02-04T03:00:16;5.82;;;4.60;;
11677;SDS011;5895;41.950;24.372;2023-02-04T03:02:44;7.32;;;4.93;;
11677;SDS011;5895;41.950;24.372;2023-02-04T03:05:18;5.65;;;4.72;;
11677;SDS011;5895;41.950;24.372;2023-02-04T03:07:45;4.82;;;4.22;;
11677;SDS011;5895;41.950;24.372;2023-02-04T03:10:12;5.50;;;3.95;;
11677;SDS011;5895;41.950;24.372;2023-02-04T03:12:39;4.90;;;3.80;;
11677;SDS011;5895;41.950;24.372;2023-02-04T03:15:06;5.73;;;3.83;;
11677;SDS011;5895;41.950;24.372;2023-02-04T03:17:35;4.63;;;3.42;;
11677;SDS011;5895;41.950;24.372;2023-02-04T03:20:03;5.38;;;3.97;;
11677;SDS011;5895;41.950;24.372;2023-02-04T03:22:30;6.53;;;4.65;;
11677;SDS011;5895;41.950;24.372;2023-02-04T03:24:58;5.35;;;4.32;;
11677;SDS011;5895;41.950;24.372;2023-02-04T03:27:25;9.68;;;6.20;;
11677;SDS011;5895;41.950;24.372;2023-02-04T03:29:52;12.75;;;7.28;;
11677;SDS011;5895;41.950;24.372;2023-02-04T03:32:19;13.13;;;8.60;;
11677;SDS011;5895;41.950;24.372;2023-02-04T03:34:48;14.45;;;7.97;;
11677;SDS011;5895;41.950;24.372;2023-02-04T03:37:15;9.65;;;6.65;;
11677;SDS011;5895;41.950;24.372;2023-02-04T03:39:42;14.55;;;10.15;;
11677;SDS011;5895;41.950;24.372;2023-02-04T03:42:09;10.43;;;7.45;;
11677;SDS011;5895;41.950;24.372;2023-02-04T03:44:36;10.00;;;6.38;;
11677;SDS011;5895;41.950;24.372;2023-02-04T03:47:03;9.48;;;6.25;;
11677;SDS011;5895;41.950;24.372;2023-02-04T03:49:30;9.93;;;6.82;;
11677;SDS011;5895;41.950;24.372;2023-02-04T03:52:01;15.80;;;9.83;;
11677;SDS011;5895;41.950;24.372;2023-02-04T03:54:28;13.98;;;8.90;;
11677;SDS011;5895;41.950;24.372;2023-02-04T03:56:55;12.15;;;8.63;;
11677;SDS011;5895;41.950;24.372;2023-02-04T03:59:22;13.73;;;7.40;;
11677;SDS011;5895;41.950;24.372;2023-02-04T04:01:49;14.48;;;8.35;;
11677;SDS011;5895;41.950;24.372;2023-02-04T04:04:16;12.68;;;8.10;;
11677;SDS011;5895;41.950;24.372;2023-02-04T04:06:44;6.72;;;4.88;;
11677;SDS011;5895;41.950;24.372;2023-02-04T04:09:12;3.30;;;2.80;;
11677;SDS011;5895;41.950;24.372;2023-02-04T04:11:39;4.25;;;3.00;;
11677;SDS011;5895;41.950;24.372;2023-02-04T04:14:06;5.45;;;3.15;;
11677;SDS011;5895;41.950;24.372;2023-02-04T04:16:33;5.88;;;3.92;;
11677;SDS011;5895;41.950;24.372;2023-02-04T04:19:00;6.22;;;3.83;;
11677;SDS011;5895;41.950;24.372;2023-02-04T04:21:27;5.80;;;4.63;;
11677;SDS011;5895;41.950;24.372;2023-02-04T04:23:54;8.68;;;5.60;;
11677;SDS011;5895;41.950;24.372;2023-02-04T04:26:23;10.32;;;5.85;;
11677;SDS011;5895;41.950;24.372;2023-02-04T04:28:50;9.50;;;6.53;;
11677;SDS011;5895;41.950;24.372;2023-02-04T04:31:18;11.80;;;7.32;;
11677;SDS011;5895;41.950;24.372;2023-02-04T04:33:45;20.80;;;13.45;;
11677;SDS011;5895;41.950;24.372;2023-02-04T04:36:12;18.58;;;11.93;;
11677;SDS011;5895;41.950;24.372;2023-02-04T04:38:39;17.95;;;12.48;;
11677;SDS011;5895;41.950;24.372;2023-02-04T04:41:06;19.30;;;11.07;;
11677;SDS011;5895;41.950;24.372;2023-02-04T04:43:34;15.27;;;9.10;;
11677;SDS011;5895;41.950;24.372;2023-02-04T04:46:01;14.32;;;9.18;;
11677;SDS011;5895;41.950;24.372;2023-02-04T04:48:28;14.73;;;10.80;;
11677;SDS011;5895;41.950;24.372;2023-02-04T04:50:55;17.65;;;11.75;;
11677;SDS011;5895;41.950;24.372;2023-02-04T04:53:23;14.73;;;10.05;;
11677;SDS011;5895;41.950;24.372;2023-02-04T04:55:50;18.23;;;12.35;;
11677;SDS011;5895;41.950;24.372;2023-02-04T04:58:17;18.45;;;13.60;;
11677;SDS011;5895;41.950;24.372;2023-02-04T05:00:45;16.30;;;11.43;;
11677;SDS011;5895;41.950;24.372;2023-02-04T05:03:12;9.85;;;7.72;;
11677;SDS011;5895;41.950;24.372;2023-02-04T05:05:39;9.25;;;6.88;;
11677;SDS011;5895;41.950;24.372;2023-02-04T05:08:06;9.15;;;6.43;;
11677;SDS011;5895;41.950;24.372;2023-02-04T05:10:38;6.43;;;5.10;;
11677;SDS011;5895;41.950;24.372;2023-02-04T05:13:05;5.73;;;4.37;;
11677;SDS011;5895;41.950;24.372;2023-02-04T05:15:32;2.80;;;2.50;;
11677;SDS011;5895;41.950;24.372;2023-02-04T05:18:01;2.60;;;2.40;;
11677;SDS011;5895;41.950;24.372;2023-02-04T05:20:28;4.60;;;3.65;;
11677;SDS011;5895;41.950;24.372;2023-02-04T05:22:55;3.97;;;3.22;;
11677;SDS011;5895;41.950;24.372;2023-02-04T05:25:25;3.00;;;2.65;;
11677;SDS011;5895;41.950;24.372;2023-02-04T05:27:53;9.45;;;6.65;;
11677;SDS011;5895;41.950;24.372;2023-02-04T05:30:20;2.35;;;2.15;;
11677;SDS011;5895;41.950;24.372;2023-02-04T05:32:47;1.58;;;1.48;;
11677;SDS011;5895;41.950;24.372;2023-02-04T05:35:16;2.22;;;1.83;;
11677;SDS011;5895;41.950;24.372;2023-02-04T05:37:43;1.50;;;1.40;;
11677;SDS011;5895;41.950;24.372;2023-02-04T05:40:11;1.80;;;1.70;;
11677;SDS011;5895;41.950;24.372;2023-02-04T05:42:38;2.55;;;2.35;;
11677;SDS011;5895;41.950;24.372;2023-02-04T05:45:06;1.60;;;1.50;;
11677;SDS011;5895;41.950;24.372;2023-02-04T05:47:35;1.42;;;1.33;;
11677;SDS011;5895;41.950;24.372;2023-02-04T05:50:02;3.72;;;1.88;;
11677;SDS011;5895;41.950;24.372;2023-02-04T05:52:31;1.80;;;1.55;;
11677;SDS011;5895;41.950;24.372;2023-02-04T05:54:58;3.08;;;2.10;;
11677;SDS011;5895;41.950;24.372;2023-02-04T05:57:25;2.15;;;1.92;;
11677;SDS011;5895;41.950;24.372;2023-02-04T05:59:52;1.70;;;1.60;;
11677;SDS011;5895;41.950;24.372;2023-02-04T06:02:19;4.35;;;2.90;;
11677;SDS011;5895;41.950;24.372;2023-02-04T06:04:46;1.60;;;1.50;;
11677;SDS011;5895;41.950;24.372;2023-02-04T06:07:13;6.05;;;3.75;;
11677;SDS011;5895;41.950;24.372;2023-02-04T06:09:41;1.90;;;1.80;;
11677;SDS011;5895;41.950;24.372;2023-02-04T06:12:08;2.25;;;2.00;;
11677;SDS011;5895;41.950;24.372;2023-02-04T06:14:36;1.50;;;1.40;;
11677;SDS011;5895;41.950;24.372;2023-02-04T06:17:03;2.15;;;1.95;;
11677;SDS011;5895;41.950;24.372;2023-02-04T06:19:30;2.67;;;2.30;;
11677;SDS011;5895;41.950;24.372;2023-02-04T06:21:57;2.17;;;1.98;;
11677;SDS011;5895;41.950;24.372;2023-02-04T06:24:24;2.65;;;2.33;;
11677;SDS011;5895;41.950;24.372;2023-02-04T06:26:52;4.88;;;2.97;;
11677;SDS011;5895;41.950;24.372;2023-02-04T06:29:19;2.08;;;1.88;;
11677;SDS011;5895;41.950;24.372;2023-02-04T06:31:46;3.90;;;3.50;;
11677;SDS011;5895;41.950;24.372;2023-02-04T06:34:14;2.22;;;2.03;;
11677;SDS011;5895;41.950;24.372;2023-02-04T06:36:41;1.50;;;1.40;;
11677;SDS011;5895;41.950;24.372;2023-02-04T06:39:08;2.00;;;1.80;;
11677;SDS011;5895;41.950;24.372;2023-02-04T06:41:35;2.83;;;2.25;;
11677;SDS011;5895;41.950;24.372;2023-02-04T06:44:04;2.08;;;1.75;;
11677;SDS011;5895;41.950;24.372;2023-02-04T06:46:32;2.97;;;2.67;;
11677;SDS011;5895;41.950;24.372;2023-02-04T06:48:59;3.92;;;3.38;;
11677;SDS011;5895;41.950;24.372;2023-02-04T06:51:26;3.13;;;2.85;;
11677;SDS011;5895;41.950;24.372;2023-02-04T06:53:53;4.30;;;3.90;;
11677;SDS011;5895;41.950;24.372;2023-02-04T06:56:20;4.18;;;3.17;;
11677;SDS011;5895;41.950;24.372;2023-02-04T06:58:47;4.38;;;3.00;;
11677;SDS011;5895;41.950;24.372;2023-02-04T07:01:15;2.75;;;1.95;;
11677;SDS011;5895;41.950;24.372;2023-02-04T07:03:43;4.68;;;3.28;;
11677;SDS011;5895;41.950;24.372;2023-02-04T07:06:10;5.28;;;3.50;;
11677;SDS011;5895;41.950;24.372;2023-02-04T07:08:37;4.95;;;3.38;;
11677;SDS011;5895;41.950;24.372;2023-02-04T07:11:04;4.10;;;2.97;;
11677;SDS011;5895;41.950;24.372;2023-02-04T07:13:31;4.32;;;2.72;;
11677;SDS011;5895;41.950;24.372;2023-02-04T07:15:58;5.25;;;3.60;;
11677;SDS011;5895;41.950;24.372;2023-02-04T07:18:26;7.85;;;5.30;;
11677;SDS011;5895;41.950;24.372;2023-02-04T07:20:53;7.10;;;5.18;;
11677;SDS011;5895;41.950;24.372;2023-02-04T07:23:20;4.97;;;3.97;;
11677;SDS011;5895;41.950;24.372;2023-02-04T07:25:48;5.25;;;3.83;;
11677;SDS011;5895;41.950;24.372;2023-02-04T07:28:17;11.18;;;8.65;;
11677;SDS011;5895;41.950;24.372;2023-02-04T07:30:44;5.95;;;4.97;;
11677;SDS011;5895;41.950;24.372;2023-02-04T07:33:11;5.05;;;4.28;;
11677;SDS011;5895;41.950;24.372;2023-02-04T07:35:40;3.47;;;3.17;;
11677;SDS011;5895;41.950;24.372;2023-02-04T07:38:07;3.47;;;2.92;;
11677;SDS011;5895;41.950;24.372;2023-02-04T07:40:34;1.30;;;1.20;;
11677;SDS011;5895;41.950;24.372;2023-02-04T07:43:01;3.20;;;2.78;;
11677;SDS011;5895;41.950;24.372;2023-02-04T07:45:28;1.80;;;1.70;;
11677;SDS011;5895;41.950;24.372;2023-02-04T07:47:55;3.28;;;2.90;;
11677;SDS011;5895;41.950;24.372;2023-02-04T07:50:22;2.80;;;2.60;;
11677;SDS011;5895;41.950;24.372;2023-02-04T07:52:51;1.60;;;1.50;;
11677;SDS011;5895;41.950;24.372;2023-02-04T07:55:18;4.43;;;3.90;;
11677;SDS011;5895;41.950;24.372;2023-02-04T07:57:45;7.00;;;4.82;;
11677;SDS011;5895;41.950;24.372;2023-02-04T08:00:12;6.38;;;4.50;;
11677;SDS011;5895;41.950;24.372;2023-02-04T08:02:40;2.25;;;2.05;;
11677;SDS011;5895;41.950;24.372;2023-02-04T08:05:08;2.45;;;2.25;;
11677;SDS011;5895;41.950;24.372;2023-02-04T08:07:35;2.28;;;1.98;;
11677;SDS011;5895;41.950;24.372;2023-02-04T08:10:04;6.53;;;4.38;;
11677;SDS011;5895;41.950;24.372;2023-02-04T08:12:32;3.67;;;3.10;;
11677;SDS011;5895;41.950;24.372;2023-02-04T08:14:59;1.65;;;1.55;;
11677;SDS011;5895;41.950;24.372;2023-02-04T08:17:26;1.80;;;1.70;;
11677;SDS011;5895;41.950;24.372;2023-02-04T08:19:53;2.15;;;1.92;;
11677;SDS011;5895;41.950;24.372;2023-02-04T08:22:21;1.48;;;1.10;;
11677;SDS011;5895;41.950;24.372;2023-02-04T08:24:48;2.33;;;1.50;;
11677;SDS011;5895;41.950;24.372;2023-02-04T08:27:17;1.73;;;1.63;;
11677;SDS011;5895;41.950;24.372;2023-02-04T08:29:44;2.17;;;1.98;;
11677;SDS011;5895;41.950;24.372;2023-02-04T08:32:11;2.50;;;2.28;;
11677;SDS011;5895;41.950;24.372;2023-02-04T08:34:38;2.30;;;2.03;;
11677;SDS011;5895;41.950;24.372;2023-02-04T08:37:05;1.50;;;1.40;;
11677;SDS011;5895;41.950;24.372;2023-02-04T08:39:32;1.50;;;1.40;;
11677;SDS011;5895;41.950;24.372;2023-02-04T08:41:59;1.42;;;1.33;;
11677;SDS011;5895;41.950;24.372;2023-02-04T08:44:28;1.40;;;1.30;;
11677;SDS011;5895;41.950;24.372;2023-02-04T08:46:55;2.00;;;1.80;;
11677;SDS011;5895;41.950;24.372;2023-02-04T08:49:22;1.77;;;1.60;;
11677;SDS011;5895;41.950;24.372;2023-02-04T08:51:49;2.13;;;1.90;;
11677;SDS011;5895;41.950;24.372;2023-02-04T08:54:16;1.42;;;1.30;;
11677;SDS011;5895;41.950;24.372;2023-02-04T08:56:43;1.00;;;1.00;;
11677;SDS011;5895;41.950;24.372;2023-02-04T08:59:10;1.55;;;1.45;;
11677;SDS011;5895;41.950;24.372;2023-02-04T09:01:39;4.57;;;3.50;;
11677;SDS011;5895;41.950;24.372;2023-02-04T09:04:06;2.22;;;2.03;;
11677;SDS011;5895;41.950;24.372;2023-02-04T09:06:33;2.60;;;2.35;;
11677;SDS011;5895;41.950;24.372;2023-02-04T09:09:00;1.50;;;1.40;;
11677;SDS011;5895;41.950;24.372;2023-02-04T09:11:27;1.67;;;1.58;;
11677;SDS011;5895;41.950;24.372;2023-02-04T09:13:54;1.40;;;1.30;;
11677;SDS011;5895;41.950;24.372;2023-02-04T09:16:21;1.83;;;1.63;;
11677;SDS011;5895;41.950;24.372;2023-02-04T09:18:50;1.67;;;1.50;;
11677;SDS011;5895;41.950;24.372;2023-02-04T09:21:17;2.17;;;1.67;;
11677;SDS011;5895;41.950;24.372;2023-02-04T09:23:44;1.45;;;1.35;;
11677;SDS011;5895;41.950;24.372;2023-02-04T09:26:12;3.03;;;2.30;;
11677;SDS011;5895;41.950;24.372;2023-02-04T09:28:39;5.60;;;3.13;;
11677;SDS011;5895;41.950;24.372;2023-02-04T09:31:06;4.28;;;2.70;;
11677;SDS011;5895;41.950;24.372;2023-02-04T09:33:35;3.28;;;2.85;;
11677;SDS011;5895;41.950;24.372;2023-02-04T09:36:04;1.88;;;1.77;;
11677;SDS011;5895;41.950;24.372;2023-02-04T09:38:31;2.70;;;2.15;;
11677;SDS011;5895;41.950;24.372;2023-02-04T09:41:00;1.85;;;1.60;;
11677;SDS011;5895;41.950;24.372;2023-02-04T09:43:30;3.80;;;3.10;;
11677;SDS011;5895;41.950;24.372;2023-02-04T09:46:04;5.22;;;3.85;;
11677;SDS011;5895;41.950;24.372;2023-02-04T09:48:31;2.30;;;2.10;;
11677;SDS011;5895;41.950;24.372;2023-02-04T09:51:01;3.95;;;2.90;;
11677;SDS011;5895;41.950;24.372;2023-02-04T09:53:32;1.80;;;1.70;;
11677;SDS011;5895;41.950;24.372;2023-02-04T09:56:01;2.10;;;1.90;;
11677;SDS011;5895;41.950;24.372;2023-02-04T09:58:29;2.60;;;2.40;;
11677;SDS011;5895;41.950;24.372;2023-02-04T10:01:01;3.50;;;2.80;;
11677;SDS011;5895;41.950;24.372;2023-02-04T10:03:38;3.35;;;2.70;;
11677;SDS011;5895;41.950;24.372;2023-02-04T10:06:12;3.25;;;2.33;;
11677;SDS011;5895;41.950;24.372;2023-02-04T10:08:40;6.68;;;4.22;;
11677;SDS011;5895;41.950;24.372;2023-02-04T10:11:08;2.95;;;2.38;;
11677;SDS011;5895;41.950;24.372;2023-02-04T10:13:37;4.15;;;2.90;;
11677;SDS011;5895;41.950;24.372;2023-02-04T10:16:11;2.67;;;2.13;;
11677;SDS011;5895;41.950;24.372;2023-02-04T10:18:40;2.92;;;2.35;;
11677;SDS011;5895;41.950;24.372;2023-02-04T10:21:15;4.30;;;3.22;;
11677;SDS011;5895;41.950;24.372;2023-02-04T10:23:44;1.80;;;1.70;;
11677;SDS011;5895;41.950;24.372;2023-02-04T10:26:14;1.90;;;1.70;;
11677;SDS011;5895;41.950;24.372;2023-02-04T10:28:42;2.30;;;2.05;;
11677;SDS011;5895;41.950;24.372;2023-02-04T10:31:30;1.60;;;1.50;;
11677;SDS011;5895;41.950;24.372;2023-02-04T10:34:04;2.03;;;1.70;;
11677;SDS011;5895;41.950;24.372;2023-02-04T10:36:36;1.42;;;1.33;;
11677;SDS011;5895;41.950;24.372;2023-02-04T10:39:04;2.17;;;1.58;;
11677;SDS011;5895;41.950;24.372;2023-02-04T10:41:36;3.33;;;1.40;;
11677;SDS011;5895;41.950;24.372;2023-02-04T10:44:05;1.77;;;1.40;;
11677;SDS011;5895;41.950;24.372;2023-02-04T10:46:32;1.92;;;1.70;;
11677;SDS011;5895;41.950;24.372;2023-02-04T10:48:59;2.60;;;2.10;;
11677;SDS011;5895;41.950;24.372;2023-02-04T10:51:30;5.07;;;3.50;;
11677;SDS011;5895;41.950;24.372;2023-02-04T10:53:59;2.50;;;2.30;;
11677;SDS011;5895;41.950;24.372;2023-02-04T10:56:43;3.20;;;1.85;;
11677;SDS011;5895;41.950;24.372;2023-02-04T10:59:14;1.92;;;1.13;;
11677;SDS011;5895;41.950;24.372;2023-02-04T11:01:48;1.55;;;1.20;;
11677;SDS011;5895;41.950;24.372;2023-02-04T11:04:15;2.10;;;1.63;;
11677;SDS011;5895;41.950;24.372;2023-02-04T11:06:42;1.42;;;1.33;;
11677;SDS011;5895;41.950;24.372;2023-02-04T11:09:12;1.98;;;1.60;;
11677;SDS011;5895;41.950;24.372;2023-02-04T11:11:44;1.27;;;1.17;;
11677;SDS011;5895;41.950;24.372;2023-02-04T11:14:21;1.30;;;1.20;;
11677;SDS011;5895;41.950;24.372;2023-02-04T11:16:52;1.95;;;1.75;;
11677;SDS011;5895;41.950;24.372;2023-02-04T11:19:31;1.25;;;1.10;;
11677;SDS011;5895;41.950;24.372;2023-02-04T11:22:07;1.52;;;1.42;;
11677;SDS011;5895;41.950;24.372;2023-02-04T11:24:49;1.30;;;1.20;;
11677;SDS011;5895;41.950;24.372;2023-02-04T11:27:18;2.03;;;1.50;;
11677;SDS011;5895;41.950;24.372;2023-02-04T11:29:47;1.60;;;1.50;;
11677;SDS011;5895;41.950;24.372;2023-02-04T11:35:22;1.35;;;1.25;;
11677;SDS011;5895;41.950;24.372;2023-02-04T11:37:51;1.58;;;1.48;;
11677;SDS011;5895;41.950;24.372;2023-02-04T11:40:24;1.42;;;1.33;;
11677;SDS011;5895;41.950;24.372;2023-02-04T11:42:57;1.23;;;1.13;;
11677;SDS011;5895;41.950;24.372;2023-02-04T11:45:26;3.10;;;2.13;;
11677;SDS011;5895;41.950;24.372;2023-02-04T11:47:56;2.20;;;1.90;;
11677;SDS011;5895;41.950;24.372;2023-02-04T11:50:26;5.97;;;3.65;;
11677;SDS011;5895;41.950;24.372;2023-02-04T11:52:55;2.05;;;1.80;;
11677;SDS011;5895;41.950;24.372;2023-02-04T11:55:24;1.60;;;1.50;;
11677;SDS011;5895;41.950;24.372;2023-02-04T11:57:52;2.97;;;1.83;;
11677;SDS011;5895;41.950;24.372;2023-02-04T12:00:21;10.52;;;8.20;;
11677;SDS011;5895;41.950;24.372;2023-02-04T12:02:50;4.05;;;2.00;;
11677;SDS011;5895;41.950;24.372;2023-02-04T12:05:29;4.50;;;3.35;;
11677;SDS011;5895;41.950;24.372;2023-02-04T12:08:08;3.65;;;2.55;;
11677;SDS011;5895;41.950;24.372;2023-02-04T12:10:38;2.25;;;1.95;;
11677;SDS011;5895;41.950;24.372;2023-02-04T12:13:17;2.03;;;1.77;;
11677;SDS011;5895;41.950;24.372;2023-02-04T12:15:53;2.50;;;1.90;;
11677;SDS011;5895;41.950;24.372;2023-02-04T12:18:23;7.72;;;2.08;;
11677;SDS011;5895;41.950;24.372;2023-02-04T12:20:52;3.55;;;2.70;;
11677;SDS011;5895;41.950;24.372;2023-02-04T12:23:19;3.80;;;2.80;;
11677;SDS011;5895;41.950;24.372;2023-02-04T12:25:48;1.98;;;1.83;;
11677;SDS011;5895;41.950;24.372;2023-02-04T12:28:15;2.17;;;1.70;;
11677;SDS011;5895;41.950;24.372;2023-02-04T12:30:42;2.35;;;1.80;;
11677;SDS011;5895;41.950;24.372;2023-02-04T12:33:09;2.55;;;2.17;;
11677;SDS011;5895;41.950;24.372;2023-02-04T12:35:37;4.82;;;3.38;;
11677;SDS011;5895;41.950;24.372;2023-02-04T12:38:04;5.00;;;3.88;;
11677;SDS011;5895;41.950;24.372;2023-02-04T12:40:31;5.85;;;4.20;;
11677;SDS011;5895;41.950;24.372;2023-02-04T12:43:00;3.63;;;3.08;;
11677;SDS011;5895;41.950;24.372;2023-02-04T12:45:27;4.38;;;3.38;;
11677;SDS011;5895;41.950;24.372;2023-02-04T12:47:54;2.95;;;2.50;;
11677;SDS011;5895;41.950;24.372;2023-02-04T12:50:21;2.35;;;2.15;;
11677;SDS011;5895;41.950;24.372;2023-02-04T12:52:49;2.65;;;2.15;;
11677;SDS011;5895;41.950;24.372;2023-02-04T12:55:16;2.50;;;2.13;;
11677;SDS011;5895;41.950;24.372;2023-02-04T12:57:43;3.00;;;1.90;;
11677;SDS011;5895;41.950;24.372;2023-02-04T13:00:13;1.83;;;1.65;;
11677;SDS011;5895;41.950;24.372;2023-02-04T13:02:42;2.10;;;1.90;;
11677;SDS011;5895;41.950;24.372;2023-02-04T13:05:09;3.35;;;2.80;;
11677;SDS011;5895;41.950;24.372;2023-02-04T13:07:37;4.85;;;3.47;;
11677;SDS011;5895;41.950;24.372;2023-02-04T13:10:05;3.15;;;2.85;;
11677;SDS011;5895;41.950;24.372;2023-02-04T13:12:33;5.50;;;2.50;;
11677;SDS011;5895;41.950;24.372;2023-02-04T13:15:00;5.47;;;4.13;;
11677;SDS011;5895;41.950;24.372;2023-02-04T13:17:28;3.53;;;2.85;;
11677;SDS011;5895;41.950;24.372;2023-02-04T13:19:55;6.78;;;4.78;;
11677;SDS011;5895;41.950;24.372;2023-02-04T13:22:22;2.67;;;2.47;;
11677;SDS011;5895;41.950;24.372;2023-02-04T13:24:49;2.33;;;1.83;;
11677;SDS011;5895;41.950;24.372;2023-02-04T13:27:16;1.80;;;1.70;;
11677;SDS011;5895;41.950;24.372;2023-02-04T13:29:44;2.67;;;2.45;;
11677;SDS011;5895;41.950;24.372;2023-02-04T13:32:11;4.57;;;3.22;;
11677;SDS011;5895;41.950;24.372;2023-02-04T13:34:39;4.45;;;3.33;;
11677;SDS011;5895;41.950;24.372;2023-02-04T13:37:06;2.72;;;2.53;;
11677;SDS011;5895;41.950;24.372;2023-02-04T13:39:33;2.25;;;2.05;;
11677;SDS011;5895;41.950;24.372;2023-02-04T13:42:00;1.88;;;1.70;;
11677;SDS011;5895;41.950;24.372;2023-02-04T13:44:28;1.80;;;1.65;;
11677;SDS011;5895;41.950;24.372;2023-02-04T13:46:55;2.08;;;1.88;;
11677;SDS011;5895;41.950;24.372;2023-02-04T13:49:22;1.95;;;1.80;;
11677;SDS011;5895;41.950;24.372;2023-02-04T13:51:50;1.90;;;1.80;;
11677;SDS011;5895;41.950;24.372;2023-02-04T13:54:17;2.60;;;2.40;;
11677;SDS011;5895;41.950;24.372;2023-02-04T13:56:44;1.77;;;1.67;;
11677;SDS011;5895;41.950;24.372;2023-02-04T13:59:11;1.60;;;1.50;;
11677;SDS011;5895;41.950;24.372;2023-02-04T14:01:38;1.77;;;1.63;;
11677;SDS011;5895;41.950;24.372;2023-02-04T14:04:05;1.77;;;1.67;;
11677;SDS011;5895;41.950;24.372;2023-02-04T14:06:33;2.50;;;2.30;;
11677;SDS011;5895;41.950;24.372;2023-02-04T14:09:03;1.60;;;1.50;;
11677;SDS011;5895;41.950;24.372;2023-02-04T14:11:31;1.42;;;1.33;;
11677;SDS011;5895;41.950;24.372;2023-02-04T14:13:58;1.63;;;1.52;;
11677;SDS011;5895;41.950;24.372;2023-02-04T14:16:24;2.20;;;2.00;;
11677;SDS011;5895;41.950;24.372;2023-02-04T14:18:52;1.38;;;1.27;;
11677;SDS011;5895;41.950;24.372;2023-02-04T14:21:19;1.23;;;1.13;;
11677;SDS011;5895;41.950;24.372;2023-02-04T14:23:47;1.40;;;1.30;;
11677;SDS011;5895;41.950;24.372;2023-02-04T14:26:15;3.53;;;2.35;;
11677;SDS011;5895;41.950;24.372;2023-02-04T14:28:42;1.65;;;1.00;;
11677;SDS011;5895;41.950;24.372;2023-02-04T14:31:09;1.20;;;1.10;;
11677;SDS011;5895;41.950;24.372;2023-02-04T14:33:36;1.40;;;1.30;;
11677;SDS011;5895;41.950;24.372;2023-02-04T14:36:04;1.20;;;1.10;;
11677;SDS011;5895;41.950;24.372;2023-02-04T14:38:31;1.80;;;1.10;;
11677;SDS011;5895;41.950;24.372;2023-02-04T14:40:58;1.02;;;1.02;;
11677;SDS011;5895;41.950;24.372;2023-02-04T14:43:27;1.80;;;1.70;;
11677;SDS011;5895;41.950;24.372;2023-02-04T14:45:54;1.30;;;1.20;;
11677;SDS011;5895;41.950;24.372;2023-02-04T14:48:21;1.50;;;1.33;;
11677;SDS011;5895;41.950;24.372;2023-02-04T14:50:48;2.08;;;1.98;;
11677;SDS011;5895;41.950;24.372;2023-02-04T14:53:15;3.53;;;2.60;;